createdAt,value
2019-01-27T00:00:27.636Z,99051.29
2019-01-27T00:01:35.027Z,99055.61
2019-01-27T00:02:40.298Z,99057.59
2019-01-27T00:03:45.954Z,99041.73
2019-01-27T00:04:50.845Z,99048.52
2019-01-27T00:05:55.751Z,99045.39
2019-01-27T00:07:00.701Z,99048.04
2019-01-27T00:08:06.154Z,99043.11
2019-01-27T00:09:12.645Z,99040.46
2019-01-27T00:10:17.664Z,99040.95
2019-01-27T00:11:22.945Z,99032.85
2019-01-27T00:12:28.227Z,99036.81
2019-01-27T00:13:33.139Z,99033.20
2019-01-27T00:14:38.008Z,99030.56
2019-01-27T00:15:43.092Z,99019.98
2019-01-27T00:16:48.355Z,99022.14
2019-01-27T00:17:53.969Z,99021.66
2019-01-27T00:18:58.935Z,99018.05
2019-01-27T00:20:05.101Z,99016.06
2019-01-27T00:21:10.639Z,99014.58
2019-01-27T00:22:15.825Z,99010.61
2019-01-27T00:23:21.129Z,99015.90
2019-01-27T00:24:26.384Z,99010.61
2019-01-27T00:25:31.303Z,99004.84
2019-01-27T00:26:36.677Z,99005.19
2019-01-27T00:27:42.046Z,99000.25
2019-01-27T00:28:47.047Z,99001.89
2019-01-27T00:29:52.057Z,98997.13
2019-01-27T00:30:57.275Z,98993.16
2019-01-27T00:32:02.629Z,98992.32
2019-01-27T00:33:07.641Z,98981.89
2019-01-27T00:34:12.699Z,98984.39
2019-01-27T00:35:17.757Z,98981.27
2019-01-27T00:36:22.745Z,98983.07
2019-01-27T00:37:27.709Z,98978.76
2019-01-27T00:38:32.695Z,98981.05
2019-01-27T00:39:37.660Z,98970.48
2019-01-27T00:40:42.534Z,98978.41
2019-01-27T00:41:48.167Z,98973.13
2019-01-27T00:42:53.177Z,98970.83
2019-01-27T00:43:58.060Z,98965.55
2019-01-27T00:45:03.380Z,98965.06
2019-01-27T00:46:09.360Z,98963.25
2019-01-27T00:47:14.362Z,98968.53
2019-01-27T00:48:19.366Z,98961.27
2019-01-27T00:49:24.287Z,98962.91
2019-01-27T00:50:29.372Z,98958.59
2019-01-27T00:51:34.336Z,98959.91
2019-01-27T00:52:39.305Z,98952.16
2019-01-27T00:53:44.296Z,98949.83
2019-01-27T00:54:49.278Z,98950.66
2019-01-27T00:55:54.422Z,98947.53
2019-01-27T00:56:59.718Z,98943.57
2019-01-27T00:58:05.040Z,98944.23
2019-01-27T00:59:10.064Z,98940.41
2019-01-27T01:00:21.334Z,98931.64
2019-01-27T01:01:26.382Z,98941.72
2019-01-27T01:02:31.847Z,98929.00
2019-01-27T01:03:36.847Z,98929.52
2019-01-27T01:04:42.033Z,98931.50
2019-01-27T01:05:47.124Z,98923.58
2019-01-27T01:06:52.236Z,98918.78
2019-01-27T01:07:58.246Z,98916.63
2019-01-27T01:09:05.272Z,98912.00
2019-01-27T01:10:11.475Z,98915.61
2019-01-27T01:11:16.532Z,98916.45
2019-01-27T01:12:21.490Z,98913.45
2019-01-27T01:13:26.765Z,98908.34
2019-01-27T01:14:31.738Z,98904.70
2019-01-27T01:15:37.237Z,98899.41
2019-01-27T01:16:42.123Z,98899.41
2019-01-27T01:17:47.123Z,98899.58
2019-01-27T01:18:52.227Z,98900.56
2019-01-27T01:19:57.497Z,98900.73
2019-01-27T01:21:02.558Z,98901.39
2019-01-27T01:22:07.687Z,98893.29
2019-01-27T01:23:12.735Z,98892.63
2019-01-27T01:24:18.424Z,98893.47
2019-01-27T01:25:23.724Z,98893.47
2019-01-27T01:26:28.774Z,98885.53
2019-01-27T01:27:34.020Z,98896.77
2019-01-27T01:28:38.996Z,98886.38
2019-01-27T01:29:44.334Z,98881.58
2019-01-27T01:30:49.233Z,98880.60
2019-01-27T01:31:54.137Z,98881.92
2019-01-27T01:32:59.436Z,98878.27
2019-01-27T01:34:04.920Z,98875.63
2019-01-27T01:35:10.740Z,98873.82
2019-01-27T01:36:15.831Z,98872.84
2019-01-27T01:37:21.067Z,98865.89
2019-01-27T01:38:26.046Z,98871.35
2019-01-27T01:39:30.985Z,98866.06
2019-01-27T01:40:36.213Z,98861.76
2019-01-27T01:41:41.421Z,98857.45
2019-01-27T01:42:46.896Z,98852.16
2019-01-27T01:43:51.936Z,98848.20
2019-01-27T01:44:56.992Z,98844.76
2019-01-27T01:46:01.960Z,98840.27
2019-01-27T01:47:07.102Z,98838.95
2019-01-27T01:48:13.161Z,98833.36
2019-01-27T01:49:18.126Z,98836.00
2019-01-27T01:50:23.523Z,98830.22
2019-01-27T01:51:28.646Z,98828.73
2019-01-27T01:52:33.888Z,98830.71
2019-01-27T01:53:38.805Z,98828.06
2019-01-27T01:54:43.801Z,98822.16
2019-01-27T01:55:48.661Z,98827.92
2019-01-27T01:56:53.548Z,98811.59
2019-01-27T01:57:58.434Z,98811.92
2019-01-27T01:59:03.496Z,98815.38
2019-01-27T02:00:11.177Z,98812.24
2019-01-27T02:01:16.427Z,98809.59
2019-01-27T02:02:21.459Z,98807.45
2019-01-27T02:03:26.377Z,98805.63
2019-01-27T02:04:31.369Z,98805.63
2019-01-27T02:05:36.233Z,98809.95
2019-01-27T02:06:41.262Z,98801.05
2019-01-27T02:07:46.550Z,98806.33
2019-01-27T02:08:51.450Z,98795.76
2019-01-27T02:09:56.661Z,98794.26
2019-01-27T02:11:01.562Z,98789.80
2019-01-27T02:12:07.151Z,98789.14
2019-01-27T02:13:12.285Z,98786.84
2019-01-27T02:14:17.217Z,98782.88
2019-01-27T02:16:00.191Z,98778.92
2019-01-27T02:17:05.398Z,98776.27
2019-01-27T02:18:10.631Z,98778.92
2019-01-27T02:19:15.822Z,98770.98
2019-01-27T02:20:20.768Z,98765.70
2019-01-27T02:21:26.102Z,98770.32
2019-01-27T02:22:31.030Z,98762.91
2019-01-27T02:23:36.213Z,98765.87
2019-01-27T02:24:41.172Z,98762.39
2019-01-27T02:25:46.153Z,98754.64
2019-01-27T02:26:51.041Z,98756.63
2019-01-27T02:27:56.021Z,98750.83
2019-01-27T02:29:00.967Z,98750.68
2019-01-27T02:30:06.358Z,98744.91
2019-01-27T02:31:11.803Z,98740.59
2019-01-27T02:32:17.249Z,98733.98
2019-01-27T02:33:22.372Z,98733.02
2019-01-27T02:34:27.245Z,98730.37
2019-01-27T02:35:32.595Z,98729.88
2019-01-27T02:36:37.824Z,98730.68
2019-01-27T02:37:42.909Z,98726.08
2019-01-27T02:38:47.894Z,98723.44
2019-01-27T02:39:53.060Z,98719.81
2019-01-27T02:40:58.241Z,98717.48
2019-01-27T02:42:03.287Z,98714.70
2019-01-27T02:43:08.269Z,98714.21
2019-01-27T02:44:13.267Z,98709.58
2019-01-27T02:45:18.249Z,98703.80
2019-01-27T02:46:23.236Z,98701.65
2019-01-27T02:47:28.424Z,98701.50
2019-01-27T02:48:33.333Z,98703.31
2019-01-27T02:49:38.282Z,98700.67
2019-01-27T02:50:44.161Z,98695.69
2019-01-27T02:51:49.481Z,98699.66
2019-01-27T02:52:54.762Z,98688.94
2019-01-27T02:53:59.833Z,98692.07
2019-01-27T02:55:05.749Z,98691.73
2019-01-27T02:56:10.633Z,98698.02
2019-01-27T02:57:15.589Z,98688.92
2019-01-27T02:58:20.551Z,98689.59
2019-01-27T02:59:25.462Z,98687.09
2019-01-27T03:00:30.761Z,98692.06
2019-01-27T03:01:36.053Z,98691.73
2019-01-27T03:02:41.329Z,98689.08
2019-01-27T03:03:46.628Z,98687.76
2019-01-27T03:04:51.610Z,98679.83
2019-01-27T03:06:11.331Z,98676.70
2019-01-27T03:07:26.108Z,98669.61
2019-01-27T03:08:35.825Z,98665.95
2019-01-27T03:09:43.107Z,98665.64
2019-01-27T03:10:48.559Z,98667.45
2019-01-27T03:11:53.444Z,98661.33
2019-01-27T03:13:01.810Z,98669.08
2019-01-27T03:14:06.692Z,98665.12
2019-01-27T03:15:11.962Z,98660.64
2019-01-27T03:16:16.948Z,98660.83
2019-01-27T03:17:21.957Z,98654.89
2019-01-27T03:18:26.900Z,98659.00
2019-01-27T03:19:31.795Z,98653.06
2019-01-27T03:20:36.995Z,98657.02
2019-01-27T03:21:41.895Z,98651.40
2019-01-27T03:22:46.854Z,98650.42
2019-01-27T03:23:51.763Z,98647.44
2019-01-27T03:24:56.620Z,98641.97
2019-01-27T03:26:01.688Z,98641.82
2019-01-27T03:27:06.710Z,98638.20
2019-01-27T03:28:11.663Z,98640.84
2019-01-27T03:29:16.912Z,98638.69
2019-01-27T03:30:21.942Z,98637.71
2019-01-27T03:31:26.822Z,98640.17
2019-01-27T03:32:32.102Z,98640.83
2019-01-27T03:33:37.041Z,98642.98
2019-01-27T03:34:41.981Z,98635.88
2019-01-27T03:35:47.636Z,98636.72
2019-01-27T03:36:52.635Z,98632.60
2019-01-27T03:37:57.820Z,98636.39
2019-01-27T03:39:04.673Z,98628.45
2019-01-27T03:40:10.831Z,98630.61
2019-01-27T03:41:15.725Z,98621.70
2019-01-27T03:42:20.915Z,98611.93
2019-01-27T03:43:26.168Z,98612.45
2019-01-27T03:44:31.696Z,98606.16
2019-01-27T03:45:36.981Z,98603.52
2019-01-27T03:46:41.898Z,98610.95
2019-01-27T03:47:47.136Z,98603.20
2019-01-27T03:48:52.430Z,98604.52
2019-01-27T03:49:57.933Z,98599.88
2019-01-27T03:51:03.235Z,98595.91
2019-01-27T03:52:08.196Z,98597.72
2019-01-27T03:53:14.133Z,98594.59
2019-01-27T03:54:19.178Z,98587.00
2019-01-27T03:55:24.267Z,98591.30
2019-01-27T03:56:29.663Z,98582.06
2019-01-27T03:57:34.969Z,98578.74
2019-01-27T03:58:40.047Z,98581.88
2019-01-27T03:59:45.222Z,98576.09
2019-01-27T04:00:50.224Z,98577.77
2019-01-27T04:01:55.747Z,98571.46
2019-01-27T04:03:00.695Z,98567.01
2019-01-27T04:04:06.312Z,98569.16
2019-01-27T04:05:11.774Z,98567.50
2019-01-27T04:06:16.808Z,98563.22
2019-01-27T04:07:21.970Z,98559.57
2019-01-27T04:08:27.670Z,98560.09
2019-01-27T04:09:32.621Z,98550.84
2019-01-27T04:10:37.513Z,98553.48
2019-01-27T04:11:43.450Z,98546.88
2019-01-27T04:12:48.795Z,98547.37
2019-01-27T04:13:53.782Z,98550.50
2019-01-27T04:14:58.669Z,98541.73
2019-01-27T04:16:04.135Z,98550.01
2019-01-27T04:17:09.096Z,98543.41
2019-01-27T04:18:14.323Z,98549.00
2019-01-27T04:19:19.320Z,98546.36
2019-01-27T04:20:24.585Z,98543.71
2019-01-27T04:21:29.918Z,98541.41
2019-01-27T04:22:34.925Z,98549.67
2019-01-27T04:23:40.038Z,98539.10
2019-01-27T04:24:44.987Z,98538.27
2019-01-27T04:25:50.571Z,98537.29
2019-01-27T04:26:55.754Z,98535.14
2019-01-27T04:28:00.918Z,98530.49
2019-01-27T04:29:06.182Z,98527.84
2019-01-27T04:30:22.436Z,98526.53
2019-01-27T04:31:27.361Z,98531.81
2019-01-27T04:32:32.463Z,98524.41
2019-01-27T04:33:38.081Z,98525.88
2019-01-27T04:34:42.983Z,98524.06
2019-01-27T04:35:47.883Z,98527.20
2019-01-27T04:36:52.784Z,98517.61
2019-01-27T04:37:57.780Z,98516.29
2019-01-27T04:39:03.043Z,98510.70
2019-01-27T04:40:14.474Z,98510.36
2019-01-27T04:41:20.430Z,98502.09
2019-01-27T04:42:25.322Z,98502.92
2019-01-27T04:43:30.688Z,98503.75
2019-01-27T04:44:36.637Z,98498.95
2019-01-27T04:45:41.512Z,98502.09
2019-01-27T04:46:46.668Z,98492.68
2019-01-27T04:47:52.032Z,98486.23
2019-01-27T04:48:56.946Z,98481.95
2019-01-27T04:50:01.951Z,98478.82
2019-01-27T04:51:06.841Z,98483.28
2019-01-27T04:52:11.729Z,98474.03
2019-01-27T04:53:16.962Z,98477.16
2019-01-27T04:54:22.296Z,98475.50
2019-01-27T04:55:28.412Z,98481.45
2019-01-27T04:56:33.323Z,98482.95
2019-01-27T04:57:38.939Z,98483.11
2019-01-27T04:58:43.962Z,98479.30
2019-01-27T04:59:48.912Z,98474.20
2019-01-27T05:00:53.833Z,98485.25
2019-01-27T05:01:58.742Z,98476.34
2019-01-27T05:03:14.712Z,98476.34
2019-01-27T05:04:31.463Z,98479.30
2019-01-27T05:05:36.549Z,98473.52
2019-01-27T05:06:41.462Z,98472.69
2019-01-27T05:07:46.725Z,98471.89
2019-01-27T05:08:52.032Z,98476.66
2019-01-27T05:09:56.944Z,98479.98
2019-01-27T05:11:02.469Z,98472.39
2019-01-27T05:12:07.578Z,98469.41
2019-01-27T05:13:12.473Z,98467.41
2019-01-27T05:14:17.355Z,98464.27
2019-01-27T05:15:24.542Z,98468.58
2019-01-27T05:16:29.504Z,98464.61
2019-01-27T05:17:34.426Z,98458.01
2019-01-27T05:18:39.516Z,98461.48
2019-01-27T05:19:44.392Z,98465.27
2019-01-27T05:20:49.251Z,98460.31
2019-01-27T05:21:54.251Z,98461.14
2019-01-27T05:22:59.185Z,98462.47
2019-01-27T05:24:04.534Z,98455.86
2019-01-27T05:25:11.088Z,98455.38
2019-01-27T05:26:16.282Z,98445.11
2019-01-27T05:27:21.184Z,98446.95
2019-01-27T05:28:26.070Z,98443.48
2019-01-27T05:29:31.253Z,98446.95
2019-01-27T05:30:36.456Z,98446.95
2019-01-27T05:31:41.853Z,98440.66
2019-01-27T05:32:47.401Z,98440.66
2019-01-27T05:33:52.627Z,98438.35
2019-01-27T05:34:57.506Z,98438.02
2019-01-27T05:36:02.688Z,98435.22
2019-01-27T05:37:07.566Z,98434.39
2019-01-27T05:38:12.466Z,98432.23
2019-01-27T05:39:17.731Z,98437.03
2019-01-27T05:40:22.737Z,98432.08
2019-01-27T05:41:27.722Z,98434.73
2019-01-27T05:42:32.620Z,98432.08
2019-01-27T05:43:37.612Z,98428.27
2019-01-27T05:44:42.518Z,98427.29
2019-01-27T05:45:47.460Z,98427.44
2019-01-27T05:46:52.349Z,98422.50
2019-01-27T05:47:57.250Z,98421.67
2019-01-27T05:49:02.539Z,98421.52
2019-01-27T05:50:09.803Z,98410.95
2019-01-27T05:51:14.759Z,98412.76
2019-01-27T05:52:19.700Z,98411.59
2019-01-27T05:53:24.564Z,98408.95
2019-01-27T05:54:29.490Z,98409.13
2019-01-27T05:55:34.809Z,98403.02
2019-01-27T05:56:40.017Z,98409.13
2019-01-27T05:57:47.145Z,98399.88
2019-01-27T05:58:52.315Z,98401.02
2019-01-27T05:59:57.760Z,98399.55
2019-01-27T06:01:03.092Z,98394.75
2019-01-27T06:02:08.147Z,98398.04
2019-01-27T06:03:13.080Z,98392.94
2019-01-27T06:04:18.688Z,98403.17
2019-01-27T06:05:23.746Z,98395.73
2019-01-27T06:06:28.646Z,98396.91
2019-01-27T06:07:33.555Z,98397.88
2019-01-27T06:08:38.477Z,98397.39
2019-01-27T06:09:43.421Z,98397.55
2019-01-27T06:10:48.608Z,98390.45
2019-01-27T06:11:53.500Z,98389.12
2019-01-27T06:12:58.746Z,98384.63
2019-01-27T06:14:04.005Z,98388.78
2019-01-27T06:15:10.686Z,98388.29
2019-01-27T06:16:16.026Z,98384.82
2019-01-27T06:17:21.059Z,98388.11
2019-01-27T06:18:26.354Z,98399.17
2019-01-27T06:19:31.279Z,98385.95
2019-01-27T06:20:36.173Z,98373.76
2019-01-27T06:21:41.156Z,98377.53
2019-01-27T06:22:46.233Z,98371.12
2019-01-27T06:23:51.120Z,98372.59
2019-01-27T06:24:56.000Z,98369.64
2019-01-27T06:26:01.463Z,98367.16
2019-01-27T06:27:06.489Z,98365.34
2019-01-27T06:28:11.362Z,98374.59
2019-01-27T06:29:16.621Z,98369.30
2019-01-27T06:30:23.442Z,98369.30
2019-01-27T06:31:28.320Z,98367.65
2019-01-27T06:32:48.677Z,98366.82
2019-01-27T06:34:03.578Z,98368.14
2019-01-27T06:35:08.848Z,98362.55
2019-01-27T06:36:13.830Z,98353.80
2019-01-27T06:37:24.772Z,98353.45
2019-01-27T06:38:25.396Z,98341.75
2019-01-27T06:39:30.453Z,98350.47
2019-01-27T06:40:35.403Z,98343.23
2019-01-27T06:41:40.641Z,98346.85
2019-01-27T06:42:46.097Z,98347.34
2019-01-27T06:43:51.274Z,98344.89
2019-01-27T06:44:56.147Z,98345.56
2019-01-27T06:46:01.366Z,98349.00
2019-01-27T06:47:06.759Z,98351.16
2019-01-27T06:48:11.634Z,98341.60
2019-01-27T06:49:16.880Z,98340.28
2019-01-27T06:50:21.933Z,98342.40
2019-01-27T06:51:27.173Z,98335.00
2019-01-27T06:52:32.348Z,98333.98
2019-01-27T06:53:37.330Z,98341.60
2019-01-27T06:54:42.337Z,98337.64
2019-01-27T06:55:47.600Z,98335.00
2019-01-27T06:56:52.815Z,98335.00
2019-01-27T06:57:57.722Z,98342.59
2019-01-27T06:59:40.210Z,98344.25
2019-01-27T07:01:14.602Z,98346.70
2019-01-27T07:02:32.909Z,98347.20
2019-01-27T07:04:02.858Z,98350.85
2019-01-27T07:05:18.270Z,98341.45
2019-01-27T07:06:42.212Z,98339.45
2019-01-27T07:07:57.341Z,98341.77
2019-01-27T07:09:30.430Z,98331.37
2019-01-27T07:11:06.769Z,98330.55
2019-01-27T07:12:29.595Z,98329.08
2019-01-27T07:13:52.535Z,98331.20
2019-01-27T07:15:15.678Z,98333.69
2019-01-27T07:16:29.930Z,98325.42
2019-01-27T07:17:53.866Z,98326.25
2019-01-27T07:19:16.715Z,98326.74
2019-01-27T07:20:33.345Z,98329.88
2019-01-27T07:21:56.110Z,98325.11
2019-01-27T07:23:20.388Z,98325.91
2019-01-27T07:24:36.996Z,98326.44
2019-01-27T07:26:09.960Z,98321.16
2019-01-27T07:27:33.889Z,98323.45
2019-01-27T07:28:48.217Z,98325.27
2019-01-27T07:30:12.100Z,98323.12
2019-01-27T07:31:36.083Z,98319.16
2019-01-27T07:33:03.016Z,98319.83
2019-01-27T07:34:20.988Z,98315.19
2019-01-27T07:35:51.239Z,98321.12
2019-01-27T07:37:33.480Z,98314.84
2019-01-27T07:39:16.024Z,98312.55
2019-01-27T07:40:54.778Z,98308.09
2019-01-27T07:42:16.198Z,98311.53
2019-01-27T07:43:35.091Z,98310.73
2019-01-27T07:44:45.136Z,98303.11
2019-01-27T07:45:59.323Z,98301.14
2019-01-27T07:47:09.651Z,98306.92
2019-01-27T07:48:33.601Z,98309.89
2019-01-27T07:49:57.841Z,98304.61
2019-01-27T07:51:23.935Z,98304.27
2019-01-27T07:52:43.911Z,98304.58
2019-01-27T07:54:06.800Z,98303.92
2019-01-27T07:55:22.181Z,98308.87
2019-01-27T07:56:45.831Z,98308.87
2019-01-27T07:57:58.451Z,98308.54
2019-01-27T07:59:09.819Z,98300.30
2019-01-27T08:00:29.888Z,98302.28
2019-01-27T08:01:53.011Z,98298.31
2019-01-27T08:03:12.931Z,98306.23
2019-01-27T08:04:37.491Z,98287.74
2019-01-27T08:06:06.657Z,98297.33
2019-01-27T08:07:31.264Z,98294.35
2019-01-27T08:08:54.381Z,98295.67
2019-01-27T08:10:27.261Z,98292.05
2019-01-27T08:11:41.481Z,98296.65
2019-01-27T08:13:00.163Z,98295.33
2019-01-27T08:14:23.912Z,98293.36
2019-01-27T08:15:46.971Z,98292.34
2019-01-27T08:17:20.325Z,98291.55
2019-01-27T08:18:36.319Z,98294.00
2019-01-27T08:19:51.741Z,98295.47
2019-01-27T08:21:09.212Z,98293.16
2019-01-27T08:22:32.124Z,98292.34
2019-01-27T08:24:02.099Z,98288.70
2019-01-27T08:25:32.199Z,98289.53
2019-01-27T08:26:44.288Z,98293.31
2019-01-27T08:28:14.607Z,98288.02
2019-01-27T08:29:28.403Z,98280.77
2019-01-27T08:30:58.514Z,98284.39
2019-01-27T08:32:13.511Z,98284.05
2019-01-27T08:33:36.748Z,98280.72
2019-01-27T08:35:06.903Z,98288.30
2019-01-27T08:36:22.324Z,98279.73
2019-01-27T08:37:44.897Z,98289.97
2019-01-27T08:39:07.870Z,98288.64
2019-01-27T08:40:22.182Z,98285.84
2019-01-27T08:41:45.408Z,98284.52
2019-01-27T08:42:59.579Z,98284.03
2019-01-27T08:44:30.077Z,98285.99
2019-01-27T08:46:09.616Z,98282.86
2019-01-27T08:47:14.617Z,98278.70
2019-01-27T08:48:19.648Z,98275.70
2019-01-27T08:49:24.588Z,98277.02
2019-01-27T08:50:29.746Z,98275.70
2019-01-27T08:51:35.061Z,98271.57
2019-01-27T08:52:40.013Z,98267.75
2019-01-27T08:53:44.943Z,98272.69
2019-01-27T08:54:49.828Z,98269.86
2019-01-27T08:55:54.789Z,98273.66
2019-01-27T08:57:00.119Z,98270.67
2019-01-27T08:58:05.415Z,98268.16
2019-01-27T08:59:10.313Z,98268.34
2019-01-27T09:00:23.248Z,98267.66
2019-01-27T09:01:50.281Z,98262.51
2019-01-27T09:03:03.529Z,98267.14
2019-01-27T09:04:14.488Z,98266.95
2019-01-27T09:05:39.571Z,98267.28
2019-01-27T09:07:02.298Z,98266.27
2019-01-27T09:08:19.743Z,98262.30
2019-01-27T09:09:34.326Z,98255.53
2019-01-27T09:10:47.220Z,98264.78
2019-01-27T09:12:10.367Z,98262.63
2019-01-27T09:13:35.043Z,98267.42
2019-01-27T09:14:54.351Z,98259.00
2019-01-27T09:16:17.175Z,98255.36
2019-01-27T09:17:37.701Z,98254.84
2019-01-27T09:18:50.908Z,98251.70
2019-01-27T09:20:05.525Z,98252.36
2019-01-27T09:21:22.986Z,98250.35
2019-01-27T09:22:42.352Z,98242.91
2019-01-27T09:24:03.992Z,98249.37
2019-01-27T09:25:31.882Z,98243.88
2019-01-27T09:26:54.344Z,98245.05
2019-01-27T09:28:09.122Z,98241.08
2019-01-27T09:29:27.612Z,98248.52
2019-01-27T09:30:50.411Z,98242.70
2019-01-27T09:32:04.438Z,98239.39
2019-01-27T09:33:34.488Z,98240.36
2019-01-27T09:34:45.357Z,98248.11
2019-01-27T09:35:57.010Z,98245.63
2019-01-27T09:37:21.119Z,98244.61
2019-01-27T09:38:45.037Z,98245.27
2019-01-27T09:39:57.765Z,98239.48
2019-01-27T09:41:20.930Z,98246.73
2019-01-27T09:42:41.356Z,98243.92
2019-01-27T09:43:59.211Z,98241.28
2019-01-27T09:45:22.991Z,98235.66
2019-01-27T09:46:45.873Z,98238.30
2019-01-27T09:47:57.585Z,98238.80
2019-01-27T09:49:28.801Z,98234.83
2019-01-27T09:50:44.426Z,98236.64
2019-01-27T09:52:17.660Z,98230.72
2019-01-27T09:53:29.207Z,98234.20
2019-01-27T09:55:06.752Z,98233.37
2019-01-27T09:56:17.325Z,98235.88
2019-01-27T09:57:33.561Z,98228.73
2019-01-27T09:58:56.908Z,98231.91
2019-01-27T10:00:20.844Z,98230.25
2019-01-27T10:01:31.190Z,98235.88
2019-01-27T10:02:54.376Z,98227.94
2019-01-27T10:04:18.146Z,98234.03
2019-01-27T10:05:28.609Z,98236.17
2019-01-27T10:06:43.531Z,98231.91
2019-01-27T10:08:06.494Z,98233.03
2019-01-27T10:09:29.775Z,98233.23
2019-01-27T10:10:56.909Z,98234.03
2019-01-27T10:12:13.746Z,98233.06
2019-01-27T10:13:41.091Z,98234.08
2019-01-27T10:15:05.075Z,98238.70
2019-01-27T10:16:24.143Z,98236.25
2019-01-27T10:17:53.949Z,98239.73
2019-01-27T10:19:21.055Z,98235.92
2019-01-27T10:20:54.638Z,98233.28
2019-01-27T10:22:06.481Z,98233.63
2019-01-27T10:23:29.501Z,98231.81
2019-01-27T10:24:51.901Z,98230.49
2019-01-27T10:26:25.427Z,98228.02
2019-01-27T10:27:49.627Z,98225.56
2019-01-27T10:29:01.427Z,98226.88
2019-01-27T10:30:17.749Z,98229.88
2019-01-27T10:31:44.733Z,98228.56
2019-01-27T10:32:55.185Z,98231.70
2019-01-27T10:34:20.084Z,98226.57
2019-01-27T10:35:42.955Z,98230.23
2019-01-27T10:37:12.036Z,98228.91
2019-01-27T10:38:18.854Z,98224.95
2019-01-27T10:39:29.758Z,98225.25
2019-01-27T10:40:50.041Z,98227.40
2019-01-27T10:42:00.236Z,98221.47
2019-01-27T10:43:26.253Z,98219.32
2019-01-27T10:45:02.918Z,98217.34
2019-01-27T10:46:22.987Z,98218.36
2019-01-27T10:47:46.864Z,98214.55
2019-01-27T10:49:01.921Z,98215.57
2019-01-27T10:50:35.386Z,98209.95
2019-01-27T10:51:48.540Z,98208.13
2019-01-27T10:53:21.612Z,98206.61
2019-01-27T10:54:47.604Z,98210.23
2019-01-27T10:56:14.389Z,98205.41
2019-01-27T10:57:37.306Z,98205.05
2019-01-27T10:58:59.889Z,98201.42
2019-01-27T11:00:43.010Z,98195.14
2019-01-27T11:01:56.108Z,98195.14
2019-01-27T11:03:38.287Z,98189.19
2019-01-27T11:05:01.155Z,98193.15
2019-01-27T11:06:17.324Z,98195.16
2019-01-27T11:07:33.534Z,98188.55
2019-01-27T11:08:47.514Z,98187.72
2019-01-27T11:10:17.386Z,98183.75
2019-01-27T11:11:45.065Z,98189.54
2019-01-27T11:13:21.321Z,98186.59
2019-01-27T11:14:44.386Z,98191.36
2019-01-27T11:16:11.077Z,98191.55
2019-01-27T11:17:40.729Z,98189.23
2019-01-27T11:18:51.910Z,98193.51
2019-01-27T11:20:19.887Z,98188.22
2019-01-27T11:21:43.092Z,98186.59
2019-01-27T11:22:58.529Z,98192.52
2019-01-27T11:24:27.727Z,98186.87
2019-01-27T11:25:38.352Z,98185.55
2019-01-27T11:27:01.672Z,98184.09
2019-01-27T11:28:16.988Z,98179.30
2019-01-27T11:29:29.047Z,98179.92
2019-01-27T11:30:55.997Z,98177.94
2019-01-27T11:32:20.051Z,98177.12
2019-01-27T11:33:47.087Z,98177.12
2019-01-27T11:35:21.888Z,98170.84
2019-01-27T11:36:45.142Z,98175.24
2019-01-27T11:38:18.426Z,98166.98
2019-01-27T11:39:41.503Z,98177.03
2019-01-27T11:40:56.685Z,98177.56
2019-01-27T11:42:26.868Z,98178.88
2019-01-27T11:43:42.614Z,98175.41
2019-01-27T11:45:12.652Z,98178.41
2019-01-27T11:46:32.273Z,98175.30
2019-01-27T11:47:43.651Z,98178.47
2019-01-27T11:49:13.791Z,98178.82
2019-01-27T11:50:47.108Z,98174.22
2019-01-27T11:52:15.803Z,98167.44
2019-01-27T11:53:24.982Z,98160.69
2019-01-27T11:54:30.673Z,98160.55
2019-01-27T11:55:38.655Z,98155.62
2019-01-27T11:56:50.709Z,98157.44
2019-01-27T11:57:55.945Z,98159.92
2019-01-27T11:59:01.193Z,98149.34
2019-01-27T12:00:08.220Z,98158.07
2019-01-27T12:01:16.046Z,98153.31
2019-01-27T12:02:21.262Z,98159.92
2019-01-27T12:03:26.270Z,98151.45
2019-01-27T12:04:33.443Z,98154.10
2019-01-27T12:05:38.513Z,98148.52
2019-01-27T12:06:45.832Z,98145.88
2019-01-27T12:07:51.523Z,98143.52
2019-01-27T12:08:56.546Z,98141.71
2019-01-27T12:10:01.559Z,98140.39
2019-01-27T12:11:06.919Z,98141.57
2019-01-27T12:12:13.489Z,98142.56
2019-01-27T12:13:18.442Z,98137.96
2019-01-27T12:14:23.646Z,98145.40
2019-01-27T12:15:28.857Z,98143.58
2019-01-27T12:16:33.772Z,98147.02
2019-01-27T12:17:38.652Z,98136.45
2019-01-27T12:18:43.681Z,98149.66
2019-01-27T12:19:48.883Z,98140.74
2019-01-27T12:20:54.115Z,98143.58
2019-01-27T12:21:59.013Z,98138.65
2019-01-27T12:23:04.229Z,98141.13
2019-01-27T12:24:09.192Z,98140.96
2019-01-27T12:25:14.325Z,98143.41
2019-01-27T12:26:19.315Z,98135.81
2019-01-27T12:27:24.181Z,98136.45
2019-01-27T12:28:29.570Z,98141.73
2019-01-27T12:29:34.566Z,98143.05
2019-01-27T12:30:39.432Z,98137.27
2019-01-27T12:31:44.411Z,98139.91
2019-01-27T12:32:49.281Z,98138.30
2019-01-27T12:33:54.453Z,98132.81
2019-01-27T12:34:59.735Z,98138.77
2019-01-27T12:36:04.911Z,98137.58
2019-01-27T12:37:09.798Z,98136.39
2019-01-27T12:38:14.763Z,98132.27
2019-01-27T12:39:19.637Z,98137.36
2019-01-27T12:40:24.927Z,98125.79
2019-01-27T12:41:29.873Z,98125.30
2019-01-27T12:42:34.789Z,98127.25
2019-01-27T12:43:39.709Z,98131.34
2019-01-27T12:44:44.641Z,98130.00
2019-01-27T12:45:49.871Z,98127.98
2019-01-27T12:46:54.805Z,98122.33
2019-01-27T12:47:59.707Z,98127.45
2019-01-27T12:49:04.757Z,98129.47
2019-01-27T12:50:11.824Z,98130.27
2019-01-27T12:51:17.067Z,98132.91
2019-01-27T12:52:21.970Z,98126.30
2019-01-27T12:53:26.944Z,98130.80
2019-01-27T12:54:31.822Z,98132.25
2019-01-27T12:55:36.791Z,98128.92
2019-01-27T12:56:42.060Z,98132.22
2019-01-27T12:57:46.960Z,98128.72
2019-01-27T12:58:52.216Z,98135.27
2019-01-27T12:59:57.253Z,98134.91
2019-01-27T13:01:06.426Z,98135.38
2019-01-27T13:02:11.368Z,98133.72
2019-01-27T13:03:16.950Z,98131.73
2019-01-27T13:04:21.956Z,98132.36
2019-01-27T13:05:26.979Z,98132.49
2019-01-27T13:06:31.876Z,98127.20
2019-01-27T13:07:36.813Z,98133.66
2019-01-27T13:08:41.695Z,98132.83
2019-01-27T13:09:46.994Z,98131.00
2019-01-27T13:10:51.833Z,98131.00
2019-01-27T13:11:56.831Z,98132.66
2019-01-27T13:13:01.968Z,98131.33
2019-01-27T13:14:07.030Z,98131.33
2019-01-27T13:15:14.599Z,98130.80
2019-01-27T13:16:19.599Z,98134.28
2019-01-27T13:17:24.616Z,98128.36
2019-01-27T13:18:29.659Z,98130.50
2019-01-27T13:19:35.158Z,98129.84
2019-01-27T13:20:41.796Z,98135.01
2019-01-27T13:21:46.852Z,98135.50
2019-01-27T13:22:51.766Z,98135.50
2019-01-27T13:23:56.707Z,98135.50
2019-01-27T13:25:01.711Z,98133.55
2019-01-27T13:26:07.123Z,98130.28
2019-01-27T13:27:12.480Z,98129.75
2019-01-27T13:28:17.809Z,98132.23
2019-01-27T13:29:22.712Z,98132.72
2019-01-27T13:30:28.065Z,98133.69
2019-01-27T13:31:32.994Z,98133.69
2019-01-27T13:32:37.928Z,98134.34
2019-01-27T13:33:43.310Z,98132.33
2019-01-27T13:34:48.290Z,98135.60
2019-01-27T13:35:53.329Z,98141.23
2019-01-27T13:36:58.220Z,98131.47
2019-01-27T13:38:03.228Z,98131.33
2019-01-27T13:39:09.163Z,98137.62
2019-01-27T13:40:17.125Z,98137.29
2019-01-27T13:41:22.465Z,98139.11
2019-01-27T13:42:27.460Z,98130.38
2019-01-27T13:43:32.353Z,98129.68
2019-01-27T13:44:37.253Z,98136.99
2019-01-27T13:45:42.723Z,98130.70
2019-01-27T13:46:47.640Z,98131.41